createdAt,value
2022-09-21T00:00:31.333Z,0
2022-09-21T00:05:31.364Z,0
2022-09-21T00:10:32.587Z,0
2022-09-21T00:17:13.858Z,0
2022-09-21T00:20:32.693Z,0
2022-09-21T00:25:32.151Z,0
2022-09-21T00:30:31.414Z,0
2022-09-21T00:35:31.383Z,0
2022-09-21T00:40:31.461Z,0
2022-09-21T00:45:31.463Z,0
2022-09-21T00:50:31.405Z,0
2022-09-21T00:55:31.376Z,0
2022-09-21T01:00:31.789Z,0
2022-09-21T01:05:31.428Z,0
2022-09-21T01:10:31.877Z,0
2022-09-21T01:15:31.361Z,0
2022-09-21T01:20:31.370Z,0
2022-09-21T01:25:31.414Z,0
2022-09-21T01:30:31.440Z,0
2022-09-21T01:35:31.460Z,0
2022-09-21T01:40:35.298Z,0
2022-09-21T01:45:31.635Z,0
2022-09-21T01:50:31.415Z,0
2022-09-21T01:55:31.407Z,0
2022-09-21T02:00:31.330Z,0
2022-09-21T02:05:31.480Z,0
2022-09-21T02:10:31.911Z,0
2022-09-21T02:15:31.364Z,0
2022-09-21T02:20:32.797Z,0
2022-09-21T02:25:31.399Z,0
2022-09-21T02:30:31.396Z,0
2022-09-21T02:35:31.447Z,0
2022-09-21T02:40:31.486Z,0
2022-09-21T02:45:31.338Z,0
2022-09-21T02:50:31.475Z,0
2022-09-21T02:55:31.410Z,0
2022-09-21T03:00:31.503Z,0
2022-09-21T03:05:31.403Z,0
2022-09-21T03:10:31.412Z,0
2022-09-21T03:15:31.379Z,0
2022-09-21T03:20:31.858Z,0
2022-09-21T03:25:31.427Z,0
2022-09-21T03:30:31.426Z,0
2022-09-21T03:35:31.443Z,0
2022-09-21T03:40:31.813Z,0
2022-09-21T03:45:31.336Z,0
2022-09-21T03:50:31.424Z,0
2022-09-21T03:55:31.445Z,0
2022-09-21T04:00:31.498Z,0
2022-09-21T04:05:31.390Z,0
2022-09-21T04:10:31.445Z,0
2022-09-21T04:15:31.467Z,0
2022-09-21T04:20:31.445Z,0
2022-09-21T04:25:31.568Z,0
2022-09-21T04:30:35.558Z,0
2022-09-21T04:35:31.432Z,0
2022-09-21T04:40:31.487Z,0
2022-09-21T04:45:31.531Z,0
2022-09-21T04:50:31.371Z,258
2022-09-21T04:55:31.427Z,259
2022-09-21T05:00:31.399Z,261
2022-09-21T05:05:31.472Z,266
2022-09-21T05:10:31.410Z,273
2022-09-21T05:15:31.405Z,279
2022-09-21T05:20:32.656Z,290
2022-09-21T05:25:31.456Z,299
2022-09-21T05:30:31.420Z,310
2022-09-21T05:35:31.841Z,324
2022-09-21T05:40:31.814Z,352
2022-09-21T05:45:31.673Z,375
2022-09-21T05:50:31.685Z,407
2022-09-21T05:55:31.398Z,405
2022-09-21T06:00:31.408Z,429
2022-09-21T06:05:31.442Z,488
2022-09-21T06:10:31.422Z,526
2022-09-21T06:15:31.482Z,547
2022-09-21T06:20:31.437Z,579
2022-09-21T06:25:34.513Z,609
2022-09-21T06:30:31.492Z,653
2022-09-21T06:35:31.552Z,659
2022-09-21T06:40:31.457Z,625
2022-09-21T06:45:31.734Z,628
2022-09-21T06:50:31.456Z,638
2022-09-21T06:55:31.535Z,683
2022-09-21T07:00:31.416Z,679
2022-09-21T07:05:31.456Z,766
2022-09-21T07:10:31.469Z,746
2022-09-21T07:15:31.420Z,755
2022-09-21T07:20:31.494Z,754
2022-09-21T14:51:02.777Z,429
2022-09-21T14:55:31.538Z,433
2022-09-21T15:00:31.578Z,449
2022-09-21T15:05:31.694Z,508
2022-09-21T15:10:31.592Z,514
2022-09-21T15:15:31.799Z,585
2022-09-21T15:20:31.576Z,571
2022-09-21T15:25:31.656Z,509
2022-09-21T15:30:31.667Z,620
2022-09-21T15:35:31.602Z,566
2022-09-21T15:40:31.612Z,432
2022-09-21T15:45:31.619Z,378
2022-09-21T15:50:31.596Z,351
2022-09-21T15:55:31.711Z,337
2022-09-21T16:00:31.717Z,328
2022-09-21T16:05:31.581Z,324
2022-09-21T16:10:31.567Z,322
2022-09-21T16:15:31.535Z,317
2022-09-21T16:20:31.613Z,311
2022-09-21T16:25:31.626Z,296
2022-09-21T16:30:32.345Z,306
2022-09-21T16:35:31.653Z,301
2022-09-21T16:40:31.676Z,295
2022-09-21T16:45:32.599Z,289
2022-09-21T16:50:31.583Z,285
2022-09-21T16:55:31.646Z,280
2022-09-21T17:00:32.688Z,278
2022-09-21T17:05:31.598Z,273
2022-09-21T17:10:31.627Z,269
2022-09-21T17:15:31.570Z,265
2022-09-21T17:20:31.615Z,262
2022-09-21T17:25:31.675Z,258
2022-09-21T17:30:31.553Z,0
2022-09-21T17:35:31.629Z,0
2022-09-21T17:40:31.700Z,0
2022-09-21T17:45:31.616Z,0
2022-09-21T17:50:31.683Z,0
2022-09-21T17:55:31.660Z,0
2022-09-21T18:00:31.720Z,0
2022-09-21T18:05:31.636Z,0
2022-09-21T18:10:31.630Z,0
2022-09-21T18:15:31.625Z,0
2022-09-21T18:20:31.685Z,0
2022-09-21T18:25:31.642Z,0
2022-09-21T18:30:31.605Z,0
2022-09-21T18:35:32.122Z,0
2022-09-21T18:40:31.753Z,0
2022-09-21T18:45:31.596Z,0
2022-09-21T18:50:31.680Z,0
2022-09-21T18:55:31.660Z,0
2022-09-21T19:00:31.708Z,0
2022-09-21T19:05:31.621Z,0
2022-09-21T19:10:31.668Z,0
2022-09-21T19:15:58.923Z,0
2022-09-21T19:20:31.672Z,0
2022-09-21T19:25:31.783Z,0
2022-09-21T19:30:31.596Z,0
2022-09-21T19:35:31.621Z,0
2022-09-21T19:40:32.738Z,0
2022-09-21T19:45:31.676Z,0
2022-09-21T19:50:31.707Z,0
2022-09-21T19:55:31.620Z,0
2022-09-21T20:00:31.639Z,0
2022-09-21T20:05:31.660Z,0
2022-09-21T20:10:31.637Z,0
2022-09-21T20:15:31.639Z,0
2022-09-21T20:20:31.672Z,0
2022-09-21T20:25:31.639Z,0
2022-09-21T20:30:31.722Z,0
2022-09-21T20:35:31.898Z,0
2022-09-21T20:40:31.765Z,0
2022-09-21T20:45:31.878Z,0
2022-09-21T20:50:31.663Z,0
2022-09-21T20:55:32.256Z,0
2022-09-21T21:00:31.646Z,0
2022-09-21T21:05:31.692Z,0
2022-09-21T21:10:31.648Z,0
2022-09-21T21:15:31.933Z,0
2022-09-21T21:20:31.675Z,0
2022-09-21T21:25:31.726Z,0
2022-09-21T21:30:31.626Z,0
2022-09-21T21:35:31.670Z,0
2022-09-21T21:40:31.706Z,0
2022-09-21T21:45:31.750Z,0
2022-09-21T21:50:31.723Z,0
2022-09-21T21:55:31.704Z,0
2022-09-21T22:00:31.849Z,0
2022-09-21T22:05:31.701Z,0
2022-09-21T22:10:31.786Z,0
2022-09-21T22:15:31.741Z,0
2022-09-21T22:20:31.686Z,0
2022-09-21T22:25:32.045Z,0
2022-09-21T22:30:31.676Z,0
2022-09-21T22:35:31.742Z,0
2022-09-21T22:40:31.779Z,0
2022-09-21T22:45:31.840Z,0
2022-09-21T22:50:31.709Z,0
2022-09-21T22:55:31.764Z,0
2022-09-21T23:00:31.679Z,0
2022-09-21T23:05:35.174Z,0
2022-09-21T23:10:32.574Z,0
2022-09-21T23:15:31.715Z,0
2022-09-21T23:20:32.220Z,0
2022-09-21T23:25:31.737Z,0
2022-09-21T23:30:31.671Z,0
2022-09-21T23:35:31.692Z,0
2022-09-21T23:40:31.769Z,0
2022-09-21T23:45:31.713Z,0
2022-09-21T23:50:31.694Z,0
2022-09-21T23:55:31.861Z,0
